sensor_id;sensor_type;location;lat;lon;timestamp;P1;durP1;ratioP1;P2;durP2;ratioP2
10299;SDS011;5195;48.562;9.192;2023-08-06T00:00:38;4.20;;;3.90;;
10299;SDS011;5195;48.562;9.192;2023-08-06T00:03:04;3.55;;;3.35;;
10299;SDS011;5195;48.562;9.192;2023-08-06T00:05:30;3.72;;;3.42;;
10299;SDS011;5195;48.562;9.192;2023-08-06T00:07:55;3.23;;;3.13;;
10299;SDS011;5195;48.562;9.192;2023-08-06T00:10:21;3.75;;;3.55;;
10299;SDS011;5195;48.562;9.192;2023-08-06T00:12:47;3.80;;;3.50;;
10299;SDS011;5195;48.562;9.192;2023-08-06T00:15:13;3.50;;;3.30;;
10299;SDS011;5195;48.562;9.192;2023-08-06T00:17:38;3.53;;;3.33;;
10299;SDS011;5195;48.562;9.192;2023-08-06T00:20:04;4.40;;;4.10;;
10299;SDS011;5195;48.562;9.192;2023-08-06T00:22:31;4.20;;;3.33;;
10299;SDS011;5195;48.562;9.192;2023-08-06T00:24:59;4.12;;;3.90;;
10299;SDS011;5195;48.562;9.192;2023-08-06T00:27:24;5.53;;;3.60;;
10299;SDS011;5195;48.562;9.192;2023-08-06T00:29:50;3.70;;;3.50;;
10299;SDS011;5195;48.562;9.192;2023-08-06T00:32:16;4.30;;;4.00;;
10299;SDS011;5195;48.562;9.192;2023-08-06T00:34:42;4.60;;;4.30;;
10299;SDS011;5195;48.562;9.192;2023-08-06T00:37:08;4.50;;;4.20;;
10299;SDS011;5195;48.562;9.192;2023-08-06T00:39:33;4.23;;;3.93;;
10299;SDS011;5195;48.562;9.192;2023-08-06T00:41:59;4.12;;;3.90;;
10299;SDS011;5195;48.562;9.192;2023-08-06T00:44:25;3.50;;;3.30;;
10299;SDS011;5195;48.562;9.192;2023-08-06T00:46:50;3.60;;;3.40;;
10299;SDS011;5195;48.562;9.192;2023-08-06T00:49:16;3.28;;;3.00;;
10299;SDS011;5195;48.562;9.192;2023-08-06T00:51:42;4.35;;;3.40;;
10299;SDS011;5195;48.562;9.192;2023-08-06T00:54:07;4.00;;;3.00;;
10299;SDS011;5195;48.562;9.192;2023-08-06T00:56:33;3.30;;;3.20;;
10299;SDS011;5195;48.562;9.192;2023-08-06T00:59:00;3.62;;;3.33;;
10299;SDS011;5195;48.562;9.192;2023-08-06T01:01:25;2.95;;;2.85;;
10299;SDS011;5195;48.562;9.192;2023-08-06T01:03:52;3.58;;;3.35;;
10299;SDS011;5195;48.562;9.192;2023-08-06T01:06:17;3.07;;;2.97;;
10299;SDS011;5195;48.562;9.192;2023-08-06T01:11:33;3.07;;;2.87;;
10299;SDS011;5195;48.562;9.192;2023-08-06T01:14:02;3.77;;;3.20;;
10299;SDS011;5195;48.562;9.192;2023-08-06T01:16:26;3.33;;;3.13;;
10299;SDS011;5195;48.562;9.192;2023-08-06T01:18:51;3.95;;;3.30;;
10299;SDS011;5195;48.562;9.192;2023-08-06T01:21:17;3.42;;;3.17;;
10299;SDS011;5195;48.562;9.192;2023-08-06T01:23:43;3.35;;;3.03;;
10299;SDS011;5195;48.562;9.192;2023-08-06T01:26:10;3.70;;;3.40;;
10299;SDS011;5195;48.562;9.192;2023-08-06T01:28:40;4.07;;;3.67;;
10299;SDS011;5195;48.562;9.192;2023-08-06T01:31:02;5.83;;;3.67;;
10299;SDS011;5195;48.562;9.192;2023-08-06T01:33:28;3.60;;;3.30;;
10299;SDS011;5195;48.562;9.192;2023-08-06T01:35:54;4.03;;;3.62;;
10299;SDS011;5195;48.562;9.192;2023-08-06T01:38:19;3.70;;;3.40;;
10299;SDS011;5195;48.562;9.192;2023-08-06T01:40:45;3.75;;;3.50;;
10299;SDS011;5195;48.562;9.192;2023-08-06T01:43:10;3.37;;;2.97;;
10299;SDS011;5195;48.562;9.192;2023-08-06T01:45:36;3.27;;;3.07;;
10299;SDS011;5195;48.562;9.192;2023-08-06T01:48:01;4.32;;;3.70;;
10299;SDS011;5195;48.562;9.192;2023-08-06T01:50:27;4.60;;;3.20;;
10299;SDS011;5195;48.562;9.192;2023-08-06T01:52:53;3.08;;;2.90;;
10299;SDS011;5195;48.562;9.192;2023-08-06T01:55:18;3.13;;;2.93;;
10299;SDS011;5195;48.562;9.192;2023-08-06T01:57:44;3.92;;;2.90;;
10299;SDS011;5195;48.562;9.192;2023-08-06T02:00:10;6.93;;;3.10;;
10299;SDS011;5195;48.562;9.192;2023-08-06T02:02:36;4.63;;;2.50;;
10299;SDS011;5195;48.562;9.192;2023-08-06T02:05:02;2.37;;;2.27;;
10299;SDS011;5195;48.562;9.192;2023-08-06T02:07:27;3.53;;;2.73;;
10299;SDS011;5195;48.562;9.192;2023-08-06T02:09:53;3.78;;;3.20;;
10299;SDS011;5195;48.562;9.192;2023-08-06T02:12:18;3.30;;;3.10;;
10299;SDS011;5195;48.562;9.192;2023-08-06T02:14:44;3.50;;;3.20;;
10299;SDS011;5195;48.562;9.192;2023-08-06T02:17:10;3.33;;;3.10;;
10299;SDS011;5195;48.562;9.192;2023-08-06T02:19:35;2.70;;;2.60;;
10299;SDS011;5195;48.562;9.192;2023-08-06T02:22:01;2.53;;;2.33;;
10299;SDS011;5195;48.562;9.192;2023-08-06T02:24:28;3.22;;;3.03;;
10299;SDS011;5195;48.562;9.192;2023-08-06T02:26:53;3.07;;;2.80;;
10299;SDS011;5195;48.562;9.192;2023-08-06T02:29:19;3.12;;;2.92;;
10299;SDS011;5195;48.562;9.192;2023-08-06T02:31:44;3.50;;;3.17;;
10299;SDS011;5195;48.562;9.192;2023-08-06T02:34:10;3.03;;;2.70;;
10299;SDS011;5195;48.562;9.192;2023-08-06T02:36:36;2.90;;;2.70;;
10299;SDS011;5195;48.562;9.192;2023-08-06T02:39:02;2.70;;;2.50;;
10299;SDS011;5195;48.562;9.192;2023-08-06T02:41:28;2.60;;;2.40;;
10299;SDS011;5195;48.562;9.192;2023-08-06T02:43:53;3.55;;;2.87;;
10299;SDS011;5195;48.562;9.192;2023-08-06T02:46:19;3.30;;;2.40;;
10299;SDS011;5195;48.562;9.192;2023-08-06T02:48:44;4.10;;;2.60;;
10299;SDS011;5195;48.562;9.192;2023-08-06T02:51:10;3.50;;;2.40;;
10299;SDS011;5195;48.562;9.192;2023-08-06T02:53:36;2.22;;;2.10;;
10299;SDS011;5195;48.562;9.192;2023-08-06T02:56:02;2.50;;;2.37;;
10299;SDS011;5195;48.562;9.192;2023-08-06T02:58:27;3.00;;;2.55;;
10299;SDS011;5195;48.562;9.192;2023-08-06T03:01:04;2.58;;;2.35;;
10299;SDS011;5195;48.562;9.192;2023-08-06T03:03:30;2.43;;;2.30;;
10299;SDS011;5195;48.562;9.192;2023-08-06T03:05:55;2.83;;;2.30;;
10299;SDS011;5195;48.562;9.192;2023-08-06T03:08:20;2.97;;;2.77;;
10299;SDS011;5195;48.562;9.192;2023-08-06T03:10:49;3.87;;;2.80;;
10299;SDS011;5195;48.562;9.192;2023-08-06T03:13:15;2.55;;;2.28;;
10299;SDS011;5195;48.562;9.192;2023-08-06T03:15:40;3.63;;;2.73;;
10299;SDS011;5195;48.562;9.192;2023-08-06T03:18:06;5.03;;;2.92;;
10299;SDS011;5195;48.562;9.192;2023-08-06T03:20:32;4.27;;;2.80;;
10299;SDS011;5195;48.562;9.192;2023-08-06T03:22:58;3.00;;;2.80;;
10299;SDS011;5195;48.562;9.192;2023-08-06T03:25:23;3.50;;;2.67;;
10299;SDS011;5195;48.562;9.192;2023-08-06T03:27:49;3.33;;;2.55;;
10299;SDS011;5195;48.562;9.192;2023-08-06T03:30:14;2.80;;;2.40;;
10299;SDS011;5195;48.562;9.192;2023-08-06T03:32:40;2.90;;;2.67;;
10299;SDS011;5195;48.562;9.192;2023-08-06T03:35:06;3.12;;;2.70;;
10299;SDS011;5195;48.562;9.192;2023-08-06T03:37:31;2.63;;;2.20;;
10299;SDS011;5195;48.562;9.192;2023-08-06T03:39:57;2.40;;;2.20;;
10299;SDS011;5195;48.562;9.192;2023-08-06T03:42:22;2.40;;;2.20;;
10299;SDS011;5195;48.562;9.192;2023-08-06T03:44:48;3.37;;;2.37;;
10299;SDS011;5195;48.562;9.192;2023-08-06T03:47:14;2.23;;;2.10;;
10299;SDS011;5195;48.562;9.192;2023-08-06T03:49:39;2.10;;;1.90;;
10299;SDS011;5195;48.562;9.192;2023-08-06T03:52:05;2.50;;;2.30;;
10299;SDS011;5195;48.562;9.192;2023-08-06T03:54:30;1.80;;;1.70;;
10299;SDS011;5195;48.562;9.192;2023-08-06T03:56:56;2.70;;;2.12;;
10299;SDS011;5195;48.562;9.192;2023-08-06T03:59:22;4.35;;;2.03;;
10299;SDS011;5195;48.562;9.192;2023-08-06T04:01:48;2.03;;;1.93;;
10299;SDS011;5195;48.562;9.192;2023-08-06T04:04:13;2.60;;;2.30;;
10299;SDS011;5195;48.562;9.192;2023-08-06T04:06:39;2.20;;;2.10;;
10299;SDS011;5195;48.562;9.192;2023-08-06T04:09:05;2.42;;;2.22;;
10299;SDS011;5195;48.562;9.192;2023-08-06T04:11:30;2.73;;;2.30;;
10299;SDS011;5195;48.562;9.192;2023-08-06T04:13:56;3.87;;;2.60;;
10299;SDS011;5195;48.562;9.192;2023-08-06T04:16:21;2.53;;;2.00;;
10299;SDS011;5195;48.562;9.192;2023-08-06T04:18:47;2.77;;;2.27;;
10299;SDS011;5195;48.562;9.192;2023-08-06T04:21:12;2.15;;;1.95;;
10299;SDS011;5195;48.562;9.192;2023-08-06T04:23:38;2.03;;;1.90;;
10299;SDS011;5195;48.562;9.192;2023-08-06T04:26:04;3.30;;;2.10;;
10299;SDS011;5195;48.562;9.192;2023-08-06T04:28:30;3.07;;;1.87;;
10299;SDS011;5195;48.562;9.192;2023-08-06T04:30:56;1.50;;;1.40;;
10299;SDS011;5195;48.562;9.192;2023-08-06T04:33:22;1.63;;;1.53;;
10299;SDS011;5195;48.562;9.192;2023-08-06T04:35:53;3.87;;;1.90;;
10299;SDS011;5195;48.562;9.192;2023-08-06T04:38:14;2.58;;;1.80;;
10299;SDS011;5195;48.562;9.192;2023-08-06T04:40:40;2.07;;;1.23;;
10299;SDS011;5195;48.562;9.192;2023-08-06T04:43:06;2.70;;;1.60;;
10299;SDS011;5195;48.562;9.192;2023-08-06T04:45:32;2.15;;;1.17;;
10299;SDS011;5195;48.562;9.192;2023-08-06T04:47:57;3.10;;;1.13;;
10299;SDS011;5195;48.562;9.192;2023-08-06T04:50:23;1.53;;;1.10;;
10299;SDS011;5195;48.562;9.192;2023-08-06T04:52:49;3.27;;;1.47;;
10299;SDS011;5195;48.562;9.192;2023-08-06T04:55:15;2.65;;;1.58;;
10299;SDS011;5195;48.562;9.192;2023-08-06T04:57:40;2.05;;;1.50;;
10299;SDS011;5195;48.562;9.192;2023-08-06T05:00:07;2.20;;;1.43;;
10299;SDS011;5195;48.562;9.192;2023-08-06T05:02:35;1.77;;;1.50;;
10299;SDS011;5195;48.562;9.192;2023-08-06T05:05:00;2.37;;;1.27;;
10299;SDS011;5195;48.562;9.192;2023-08-06T05:07:26;2.20;;;1.60;;
10299;SDS011;5195;48.562;9.192;2023-08-06T05:09:51;1.48;;;1.33;;
10299;SDS011;5195;48.562;9.192;2023-08-06T05:12:17;2.62;;;1.52;;
10299;SDS011;5195;48.562;9.192;2023-08-06T05:14:43;2.15;;;1.30;;
10299;SDS011;5195;48.562;9.192;2023-08-06T05:17:08;1.93;;;1.40;;
10299;SDS011;5195;48.562;9.192;2023-08-06T05:19:34;2.35;;;1.40;;
10299;SDS011;5195;48.562;9.192;2023-08-06T05:21:59;1.90;;;1.35;;
10299;SDS011;5195;48.562;9.192;2023-08-06T05:24:25;1.70;;;1.20;;
10299;SDS011;5195;48.562;9.192;2023-08-06T05:26:50;3.28;;;1.25;;
10299;SDS011;5195;48.562;9.192;2023-08-06T05:29:16;1.90;;;1.30;;
10299;SDS011;5195;48.562;9.192;2023-08-06T05:31:42;2.33;;;1.20;;
10299;SDS011;5195;48.562;9.192;2023-08-06T05:34:07;2.37;;;1.10;;
10299;SDS011;5195;48.562;9.192;2023-08-06T05:36:33;1.75;;;1.10;;
10299;SDS011;5195;48.562;9.192;2023-08-06T05:38:58;0.98;;;0.98;;
10299;SDS011;5195;48.562;9.192;2023-08-06T05:41:24;1.75;;;1.02;;
10299;SDS011;5195;48.562;9.192;2023-08-06T05:43:50;3.55;;;1.30;;
10299;SDS011;5195;48.562;9.192;2023-08-06T05:46:15;2.00;;;1.13;;
10299;SDS011;5195;48.562;9.192;2023-08-06T05:48:41;1.98;;;1.00;;
10299;SDS011;5195;48.562;9.192;2023-08-06T05:51:07;1.80;;;1.10;;
10299;SDS011;5195;48.562;9.192;2023-08-06T05:53:33;2.10;;;0.90;;
10299;SDS011;5195;48.562;9.192;2023-08-06T05:55:58;0.90;;;0.75;;
10299;SDS011;5195;48.562;9.192;2023-08-06T05:58:24;2.10;;;0.93;;
10299;SDS011;5195;48.562;9.192;2023-08-06T06:00:50;1.67;;;0.93;;
10299;SDS011;5195;48.562;9.192;2023-08-06T06:03:16;2.80;;;0.90;;
10299;SDS011;5195;48.562;9.192;2023-08-06T06:05:41;1.53;;;0.80;;
10299;SDS011;5195;48.562;9.192;2023-08-06T06:08:07;1.52;;;1.10;;
10299;SDS011;5195;48.562;9.192;2023-08-06T06:10:32;0.57;;;0.53;;
10299;SDS011;5195;48.562;9.192;2023-08-06T06:12:58;1.27;;;0.98;;
10299;SDS011;5195;48.562;9.192;2023-08-06T06:15:23;3.40;;;1.10;;
10299;SDS011;5195;48.562;9.192;2023-08-06T06:17:49;1.80;;;1.08;;
10299;SDS011;5195;48.562;9.192;2023-08-06T06:20:15;1.80;;;1.17;;
10299;SDS011;5195;48.562;9.192;2023-08-06T06:22:40;1.90;;;1.10;;
10299;SDS011;5195;48.562;9.192;2023-08-06T06:25:06;0.87;;;0.57;;
10299;SDS011;5195;48.562;9.192;2023-08-06T06:27:31;0.93;;;0.90;;
10299;SDS011;5195;48.562;9.192;2023-08-06T06:29:57;1.50;;;0.82;;
10299;SDS011;5195;48.562;9.192;2023-08-06T06:32:23;1.67;;;0.80;;
10299;SDS011;5195;48.562;9.192;2023-08-06T06:34:48;1.27;;;0.88;;
10299;SDS011;5195;48.562;9.192;2023-08-06T06:37:14;1.67;;;0.88;;
10299;SDS011;5195;48.562;9.192;2023-08-06T06:39:39;1.70;;;0.80;;
10299;SDS011;5195;48.562;9.192;2023-08-06T06:42:05;1.47;;;0.67;;
10299;SDS011;5195;48.562;9.192;2023-08-06T06:44:31;0.70;;;0.53;;
10299;SDS011;5195;48.562;9.192;2023-08-06T06:46:56;1.10;;;0.80;;
10299;SDS011;5195;48.562;9.192;2023-08-06T06:49:22;0.75;;;0.62;;
10299;SDS011;5195;48.562;9.192;2023-08-06T06:51:47;1.10;;;0.80;;
10299;SDS011;5195;48.562;9.192;2023-08-06T06:54:13;2.93;;;0.77;;
10299;SDS011;5195;48.562;9.192;2023-08-06T06:56:38;4.07;;;0.83;;
10299;SDS011;5195;48.562;9.192;2023-08-06T06:59:05;1.70;;;0.70;;
10299;SDS011;5195;48.562;9.192;2023-08-06T07:01:30;0.70;;;0.67;;
10299;SDS011;5195;48.562;9.192;2023-08-06T07:03:57;0.50;;;0.50;;
10299;SDS011;5195;48.562;9.192;2023-08-06T07:06:22;0.87;;;0.60;;
10299;SDS011;5195;48.562;9.192;2023-08-06T07:08:48;1.20;;;0.70;;
10299;SDS011;5195;48.562;9.192;2023-08-06T07:11:13;1.17;;;0.77;;
10299;SDS011;5195;48.562;9.192;2023-08-06T07:13:39;1.23;;;0.70;;
10299;SDS011;5195;48.562;9.192;2023-08-06T07:16:04;2.87;;;1.10;;
10299;SDS011;5195;48.562;9.192;2023-08-06T07:18:30;1.12;;;0.77;;
10299;SDS011;5195;48.562;9.192;2023-08-06T07:20:56;2.08;;;0.57;;
10299;SDS011;5195;48.562;9.192;2023-08-06T07:23:22;1.40;;;0.53;;
10299;SDS011;5195;48.562;9.192;2023-08-06T07:25:48;0.47;;;0.40;;
10299;SDS011;5195;48.562;9.192;2023-08-06T07:28:13;1.07;;;0.60;;
10299;SDS011;5195;48.562;9.192;2023-08-06T07:30:39;0.97;;;0.70;;
10299;SDS011;5195;48.562;9.192;2023-08-06T07:33:04;1.20;;;0.50;;
10299;SDS011;5195;48.562;9.192;2023-08-06T07:35:30;1.00;;;0.70;;
10299;SDS011;5195;48.562;9.192;2023-08-06T07:37:55;0.90;;;0.50;;
10299;SDS011;5195;48.562;9.192;2023-08-06T07:40:22;1.35;;;0.50;;
10299;SDS011;5195;48.562;9.192;2023-08-06T07:42:47;0.60;;;0.37;;
10299;SDS011;5195;48.562;9.192;2023-08-06T07:45:14;0.47;;;0.47;;
10299;SDS011;5195;48.562;9.192;2023-08-06T07:47:39;0.60;;;0.60;;
10299;SDS011;5195;48.562;9.192;2023-08-06T07:50:05;1.15;;;0.50;;
10299;SDS011;5195;48.562;9.192;2023-08-06T07:52:30;0.50;;;0.50;;
10299;SDS011;5195;48.562;9.192;2023-08-06T07:54:56;0.50;;;0.30;;
10299;SDS011;5195;48.562;9.192;2023-08-06T07:57:21;1.50;;;0.37;;
10299;SDS011;5195;48.562;9.192;2023-08-06T07:59:47;1.33;;;0.50;;
10299;SDS011;5195;48.562;9.192;2023-08-06T08:02:13;0.40;;;0.40;;
10299;SDS011;5195;48.562;9.192;2023-08-06T08:04:38;0.27;;;0.27;;
10299;SDS011;5195;48.562;9.192;2023-08-06T08:07:04;2.15;;;0.40;;
10299;SDS011;5195;48.562;9.192;2023-08-06T08:09:29;0.53;;;0.30;;
10299;SDS011;5195;48.562;9.192;2023-08-06T08:11:55;0.40;;;0.30;;
10299;SDS011;5195;48.562;9.192;2023-08-06T08:14:21;0.80;;;0.50;;
10299;SDS011;5195;48.562;9.192;2023-08-06T08:16:46;0.60;;;0.30;;
10299;SDS011;5195;48.562;9.192;2023-08-06T08:19:12;1.17;;;0.40;;
10299;SDS011;5195;48.562;9.192;2023-08-06T08:21:37;0.77;;;0.40;;
10299;SDS011;5195;48.562;9.192;2023-08-06T08:24:04;0.45;;;0.30;;
10299;SDS011;5195;48.562;9.192;2023-08-06T08:26:28;0.30;;;0.30;;
10299;SDS011;5195;48.562;9.192;2023-08-06T08:28:54;1.00;;;0.33;;
10299;SDS011;5195;48.562;9.192;2023-08-06T08:31:20;0.07;;;0.07;;
10299;SDS011;5195;48.562;9.192;2023-08-06T08:33:45;0.35;;;0.20;;
10299;SDS011;5195;48.562;9.192;2023-08-06T08:36:11;0.20;;;0.20;;
10299;SDS011;5195;48.562;9.192;2023-08-06T08:38:36;1.00;;;0.20;;
10299;SDS011;5195;48.562;9.192;2023-08-06T08:41:03;0.20;;;0.20;;
10299;SDS011;5195;48.562;9.192;2023-08-06T08:43:28;0.20;;;0.10;;
10299;SDS011;5195;48.562;9.192;2023-08-06T08:45:54;0.43;;;0.10;;
10299;SDS011;5195;48.562;9.192;2023-08-06T08:48:27;0.90;;;0.10;;
10299;SDS011;5195;48.562;9.192;2023-08-06T08:50:52;0.33;;;0.17;;
10299;SDS011;5195;48.562;9.192;2023-08-06T08:53:18;0.07;;;0.07;;
10299;SDS011;5195;48.562;9.192;2023-08-06T08:55:46;0.40;;;0.20;;
10299;SDS011;5195;48.562;9.192;2023-08-06T08:58:10;1.37;;;0.20;;
10299;SDS011;5195;48.562;9.192;2023-08-06T09:00:37;1.00;;;0.10;;
10299;SDS011;5195;48.562;9.192;2023-08-06T09:03:03;0.30;;;0.20;;
10299;SDS011;5195;48.562;9.192;2023-08-06T09:05:28;1.17;;;0.30;;
10299;SDS011;5195;48.562;9.192;2023-08-06T09:07:53;0.30;;;0.20;;
10299;SDS011;5195;48.562;9.192;2023-08-06T09:10:19;0.20;;;0.20;;
10299;SDS011;5195;48.562;9.192;2023-08-06T09:12:45;0.87;;;0.30;;
10299;SDS011;5195;48.562;9.192;2023-08-06T09:15:10;0.45;;;0.10;;
10299;SDS011;5195;48.562;9.192;2023-08-06T09:17:36;0.20;;;0.17;;
10299;SDS011;5195;48.562;9.192;2023-08-06T09:20:09;0.83;;;0.20;;
10299;SDS011;5195;48.562;9.192;2023-08-06T09:22:34;0.10;;;0.10;;
10299;SDS011;5195;48.562;9.192;2023-08-06T09:24:59;0.60;;;0.60;;
10299;SDS011;5195;48.562;9.192;2023-08-06T09:27:25;0.55;;;0.20;;
10299;SDS011;5195;48.562;9.192;2023-08-06T09:29:51;1.70;;;0.20;;
10299;SDS011;5195;48.562;9.192;2023-08-06T09:32:17;0.10;;;0.10;;
10299;SDS011;5195;48.562;9.192;2023-08-06T09:34:43;0.20;;;0.10;;
10299;SDS011;5195;48.562;9.192;2023-08-06T09:37:08;0.80;;;0.10;;
10299;SDS011;5195;48.562;9.192;2023-08-06T09:39:33;0.60;;;0.10;;
10299;SDS011;5195;48.562;9.192;2023-08-06T09:42:00;0.20;;;0.10;;
10299;SDS011;5195;48.562;9.192;2023-08-06T09:44:26;0.93;;;0.20;;
10299;SDS011;5195;48.562;9.192;2023-08-06T09:46:53;0.47;;;0.30;;
10299;SDS011;5195;48.562;9.192;2023-08-06T09:52:00;0.10;;;0.10;;
10299;SDS011;5195;48.562;9.192;2023-08-06T09:54:25;0.20;;;0.10;;
10299;SDS011;5195;48.562;9.192;2023-08-06T09:56:50;0.17;;;0.10;;
10299;SDS011;5195;48.562;9.192;2023-08-06T09:59:16;0.00;;;0.00;;
10299;SDS011;5195;48.562;9.192;2023-08-06T10:01:41;0.90;;;0.20;;
10299;SDS011;5195;48.562;9.192;2023-08-06T10:04:07;0.20;;;0.10;;
10299;SDS011;5195;48.562;9.192;2023-08-06T10:06:33;0.70;;;0.10;;
10299;SDS011;5195;48.562;9.192;2023-08-06T10:08:58;0.70;;;0.10;;
10299;SDS011;5195;48.562;9.192;2023-08-06T10:11:24;1.20;;;0.27;;
10299;SDS011;5195;48.562;9.192;2023-08-06T10:13:50;0.20;;;0.20;;
10299;SDS011;5195;48.562;9.192;2023-08-06T10:16:16;0.20;;;0.20;;
10299;SDS011;5195;48.562;9.192;2023-08-06T10:18:41;0.97;;;0.30;;
10299;SDS011;5195;48.562;9.192;2023-08-06T10:21:07;0.20;;;0.20;;
10299;SDS011;5195;48.562;9.192;2023-08-06T10:23:33;1.35;;;0.10;;
10299;SDS011;5195;48.562;9.192;2023-08-06T10:25:58;0.40;;;0.23;;
10299;SDS011;5195;48.562;9.192;2023-08-06T10:28:24;0.50;;;0.10;;
10299;SDS011;5195;48.562;9.192;2023-08-06T10:30:50;0.67;;;0.10;;
10299;SDS011;5195;48.562;9.192;2023-08-06T10:33:15;0.20;;;0.10;;
10299;SDS011;5195;48.562;9.192;2023-08-06T10:35:42;0.63;;;0.30;;
10299;SDS011;5195;48.562;9.192;2023-08-06T10:38:07;0.40;;;0.20;;
10299;SDS011;5195;48.562;9.192;2023-08-06T10:40:32;0.05;;;0.05;;
10299;SDS011;5195;48.562;9.192;2023-08-06T10:43:01;0.10;;;0.10;;
10299;SDS011;5195;48.562;9.192;2023-08-06T10:45:26;0.20;;;0.20;;
10299;SDS011;5195;48.562;9.192;2023-08-06T10:47:52;0.33;;;0.10;;
10299;SDS011;5195;48.562;9.192;2023-08-06T10:50:17;0.40;;;0.20;;
10299;SDS011;5195;48.562;9.192;2023-08-06T10:52:43;0.63;;;0.20;;
10299;SDS011;5195;48.562;9.192;2023-08-06T10:55:08;0.20;;;0.10;;
10299;SDS011;5195;48.562;9.192;2023-08-06T10:57:34;0.43;;;0.20;;
10299;SDS011;5195;48.562;9.192;2023-08-06T11:00:00;0.50;;;0.20;;
10299;SDS011;5195;48.562;9.192;2023-08-06T11:02:25;0.22;;;0.10;;
10299;SDS011;5195;48.562;9.192;2023-08-06T11:04:51;2.13;;;0.20;;
10299;SDS011;5195;48.562;9.192;2023-08-06T11:07:17;0.13;;;0.13;;
10299;SDS011;5195;48.562;9.192;2023-08-06T11:09:43;0.40;;;0.30;;
10299;SDS011;5195;48.562;9.192;2023-08-06T11:12:11;0.32;;;0.28;;
10299;SDS011;5195;48.562;9.192;2023-08-06T11:14:37;0.43;;;0.28;;
10299;SDS011;5195;48.562;9.192;2023-08-06T11:17:02;0.73;;;0.30;;
10299;SDS011;5195;48.562;9.192;2023-08-06T11:19:28;0.87;;;0.30;;
10299;SDS011;5195;48.562;9.192;2023-08-06T11:21:54;0.20;;;0.20;;
10299;SDS011;5195;48.562;9.192;2023-08-06T11:24:20;0.20;;;0.20;;
10299;SDS011;5195;48.562;9.192;2023-08-06T11:26:45;1.67;;;0.37;;
10299;SDS011;5195;48.562;9.192;2023-08-06T11:29:11;0.20;;;0.20;;
10299;SDS011;5195;48.562;9.192;2023-08-06T11:31:37;0.73;;;0.27;;
10299;SDS011;5195;48.562;9.192;2023-08-06T11:34:02;0.50;;;0.20;;
10299;SDS011;5195;48.562;9.192;2023-08-06T11:36:32;0.28;;;0.20;;
10299;SDS011;5195;48.562;9.192;2023-08-06T11:38:57;0.30;;;0.30;;
10299;SDS011;5195;48.562;9.192;2023-08-06T11:41:22;0.27;;;0.27;;
10299;SDS011;5195;48.562;9.192;2023-08-06T11:43:49;0.20;;;0.20;;
10299;SDS011;5195;48.562;9.192;2023-08-06T11:46:14;1.93;;;0.70;;
10299;SDS011;5195;48.562;9.192;2023-08-06T11:48:50;0.13;;;0.10;;
10299;SDS011;5195;48.562;9.192;2023-08-06T11:51:15;0.13;;;0.13;;
10299;SDS011;5195;48.562;9.192;2023-08-06T11:53:46;0.10;;;0.10;;
10299;SDS011;5195;48.562;9.192;2023-08-06T11:56:08;0.10;;;0.10;;
10299;SDS011;5195;48.562;9.192;2023-08-06T11:58:34;1.80;;;0.20;;
10299;SDS011;5195;48.562;9.192;2023-08-06T12:00:59;0.13;;;0.13;;
10299;SDS011;5195;48.562;9.192;2023-08-06T12:03:26;0.77;;;0.10;;
10299;SDS011;5195;48.562;9.192;2023-08-06T12:05:53;0.20;;;0.20;;
10299;SDS011;5195;48.562;9.192;2023-08-06T12:08:17;0.90;;;0.20;;
10299;SDS011;5195;48.562;9.192;2023-08-06T12:10:42;0.75;;;0.35;;
10299;SDS011;5195;48.562;9.192;2023-08-06T12:13:08;0.10;;;0.10;;
10299;SDS011;5195;48.562;9.192;2023-08-06T12:15:34;0.50;;;0.40;;
10299;SDS011;5195;48.562;9.192;2023-08-06T12:17:59;0.10;;;0.10;;
10299;SDS011;5195;48.562;9.192;2023-08-06T12:20:25;0.30;;;0.30;;
10299;SDS011;5195;48.562;9.192;2023-08-06T12:22:51;0.97;;;0.20;;
10299;SDS011;5195;48.562;9.192;2023-08-06T12:25:17;0.27;;;0.27;;
10299;SDS011;5195;48.562;9.192;2023-08-06T12:27:43;1.33;;;0.33;;
10299;SDS011;5195;48.562;9.192;2023-08-06T12:30:08;0.40;;;0.40;;
10299;SDS011;5195;48.562;9.192;2023-08-06T12:32:33;0.80;;;0.60;;
10299;SDS011;5195;48.562;9.192;2023-08-06T12:34:59;1.05;;;0.75;;
10299;SDS011;5195;48.562;9.192;2023-08-06T12:37:25;1.33;;;0.70;;
10299;SDS011;5195;48.562;9.192;2023-08-06T12:39:51;0.70;;;0.70;;
10299;SDS011;5195;48.562;9.192;2023-08-06T12:42:16;1.83;;;0.80;;
10299;SDS011;5195;48.562;9.192;2023-08-06T12:44:42;0.80;;;0.80;;
10299;SDS011;5195;48.562;9.192;2023-08-06T12:47:08;1.00;;;0.70;;
10299;SDS011;5195;48.562;9.192;2023-08-06T12:49:34;0.80;;;0.80;;
10299;SDS011;5195;48.562;9.192;2023-08-06T12:51:59;0.70;;;0.70;;
10299;SDS011;5195;48.562;9.192;2023-08-06T12:54:26;1.37;;;0.80;;
10299;SDS011;5195;48.562;9.192;2023-08-06T12:56:51;0.60;;;0.60;;
10299;SDS011;5195;48.562;9.192;2023-08-06T12:59:17;0.70;;;0.70;;
10299;SDS011;5195;48.562;9.192;2023-08-06T13:01:42;1.90;;;0.87;;
10299;SDS011;5195;48.562;9.192;2023-08-06T13:04:08;0.50;;;0.50;;
10299;SDS011;5195;48.562;9.192;2023-08-06T13:06:33;0.73;;;0.73;;
10299;SDS011;5195;48.562;9.192;2023-08-06T13:09:06;0.70;;;0.70;;
10299;SDS011;5195;48.562;9.192;2023-08-06T13:11:31;0.50;;;0.50;;
10299;SDS011;5195;48.562;9.192;2023-08-06T13:14:04;1.23;;;0.70;;
10299;SDS011;5195;48.562;9.192;2023-08-06T13:16:29;0.60;;;0.57;;
10299;SDS011;5195;48.562;9.192;2023-08-06T13:18:55;0.53;;;0.53;;
10299;SDS011;5195;48.562;9.192;2023-08-06T13:21:21;0.50;;;0.50;;
10299;SDS011;5195;48.562;9.192;2023-08-06T13:23:47;0.50;;;0.50;;
10299;SDS011;5195;48.562;9.192;2023-08-06T13:26:13;0.60;;;0.60;;
10299;SDS011;5195;48.562;9.192;2023-08-06T13:28:39;0.20;;;0.20;;
10299;SDS011;5195;48.562;9.192;2023-08-06T13:31:05;2.90;;;0.50;;
10299;SDS011;5195;48.562;9.192;2023-08-06T13:33:30;1.77;;;0.70;;
10299;SDS011;5195;48.562;9.192;2023-08-06T13:35:56;0.60;;;0.60;;
10299;SDS011;5195;48.562;9.192;2023-08-06T13:38:21;1.30;;;0.62;;
10299;SDS011;5195;48.562;9.192;2023-08-06T13:40:48;0.82;;;0.50;;
10299;SDS011;5195;48.562;9.192;2023-08-06T13:43:13;0.50;;;0.50;;
10299;SDS011;5195;48.562;9.192;2023-08-06T13:45:39;0.40;;;0.40;;
10299;SDS011;5195;48.562;9.192;2023-08-06T13:48:04;0.40;;;0.40;;
10299;SDS011;5195;48.562;9.192;2023-08-06T13:50:31;0.60;;;0.50;;
10299;SDS011;5195;48.562;9.192;2023-08-06T13:52:56;1.13;;;1.00;;
10299;SDS011;5195;48.562;9.192;2023-08-06T13:55:22;1.70;;;1.60;;
10299;SDS011;5195;48.562;9.192;2023-08-06T13:57:47;0.60;;;0.60;;
10299;SDS011;5195;48.562;9.192;2023-08-06T14:00:13;2.10;;;0.52;;
10299;SDS011;5195;48.562;9.192;2023-08-06T14:02:39;0.50;;;0.50;;
10299;SDS011;5195;48.562;9.192;2023-08-06T14:05:04;1.23;;;0.50;;
10299;SDS011;5195;48.562;9.192;2023-08-06T14:07:30;1.10;;;0.80;;
10299;SDS011;5195;48.562;9.192;2023-08-06T14:09:55;1.45;;;0.70;;
10299;SDS011;5195;48.562;9.192;2023-08-06T14:12:21;2.17;;;0.63;;
10299;SDS011;5195;48.562;9.192;2023-08-06T14:14:47;0.93;;;0.87;;
10299;SDS011;5195;48.562;9.192;2023-08-06T14:17:12;0.50;;;0.50;;
10299;SDS011;5195;48.562;9.192;2023-08-06T14:19:38;0.60;;;0.60;;
10299;SDS011;5195;48.562;9.192;2023-08-06T14:22:03;0.50;;;0.50;;
10299;SDS011;5195;48.562;9.192;2023-08-06T14:24:29;0.47;;;0.47;;
10299;SDS011;5195;48.562;9.192;2023-08-06T14:26:54;0.30;;;0.30;;
10299;SDS011;5195;48.562;9.192;2023-08-06T14:29:20;0.50;;;0.50;;
10299;SDS011;5195;48.562;9.192;2023-08-06T14:31:46;0.88;;;0.40;;
10299;SDS011;5195;48.562;9.192;2023-08-06T14:34:11;0.80;;;0.50;;
10299;SDS011;5195;48.562;9.192;2023-08-06T14:36:37;0.40;;;0.40;;
10299;SDS011;5195;48.562;9.192;2023-08-06T14:39:02;1.30;;;0.53;;
10299;SDS011;5195;48.562;9.192;2023-08-06T14:41:28;0.40;;;0.40;;
10299;SDS011;5195;48.562;9.192;2023-08-06T14:43:53;0.55;;;0.55;;
10299;SDS011;5195;48.562;9.192;2023-08-06T14:46:19;1.03;;;0.40;;
10299;SDS011;5195;48.562;9.192;2023-08-06T14:48:45;0.40;;;0.40;;
10299;SDS011;5195;48.562;9.192;2023-08-06T14:51:10;0.40;;;0.40;;
10299;SDS011;5195;48.562;9.192;2023-08-06T14:53:36;1.27;;;0.47;;
10299;SDS011;5195;48.562;9.192;2023-08-06T14:56:01;0.43;;;0.43;;